Cap San Lorenzo — CQEV — position and weather

sailwx.info

Track history (hours):
 
Tides and Currents Weather Stations Pressure Air Temp Water Temp Dewpoint Dewpoint Depression Visibility Wind Speed Wind Dir Waves Ship Positions

Cap San Lorenzo

Last reported at 2017-Oct-18 12:00 UTC. Time now 2017-Oct-18 22:39 UTC.
Position N 13°36' W 022°36'.

Length 333 m; draft 13.5 m.

Type: Ship (hazmat cat A). MMSI: 255805699.

Wind from 030 at 14 knots

Barometer 1016.9 mb
Air temperature 31.3 ° C
Visibility: greater than 5.4 NM
Dewpoint 21.8 ° C
Water temperature 29.0 ° C

Date/timePositionNaut miles runAvg speedWind from/ knotsBaromVisibWave heightAir tempDewpointWater temp
2017-Oct-18 12:00N 13°36' W 022°36'23219.3 030 / 141016.9 5.4 31.321.829.0
2017-Oct-18 00:00N 17°06' W 020°54'22819.0 010 / 111018.510.8 24.021.826.0
2017-Oct-17 12:00N 20°30' W 019°06'24020.0 050 / 141019.0 5.4 30.317.424.0
2017-Oct-17 00:00N 24°06' W 017°12'19118.8 360 / 171020.410.8 21.716.621.0
2017-Oct-16 13:50N 26°34' W 014°58'2018.6
2017-Oct-16 12:46N 26°49' W 014°43'518.9
2017-Oct-16 12:30N 26°53' W 014°40'918.9
2017-Oct-16 12:00N 27°00' W 014°33'3186.9
2017-Oct-16 12:00N 27°00' W 014°30'817.1 1022.5 5.4 28.015.122.0
2017-Oct-16 11:30N 27°08' W 014°26'918.7
2017-Oct-16 11:00N 27°15' W 014°20'918.5
2017-Oct-16 10:30N 27°22' W 014°13'918.4
2017-Oct-16 10:00N 27°29' W 014°07'918.2
2017-Oct-16 09:30N 27°36' W 014°00'918.4
2017-Oct-16 09:00N 27°44' W 013°54'918.5
2017-Oct-16 08:30N 27°51' W 013°48'918.6
2017-Oct-16 08:00N 27°59' W 013°42'1018.8
2017-Oct-16 07:28N 28°07' W 013°35'918.8
2017-Oct-16 07:00N 28°14' W 013°29'1518.8
2017-Oct-16 06:11N 28°26' W 013°19'718.5
2017-Oct-16 05:46N 28°33' W 013°14'618.7
2017-Oct-16 05:28N 28°37' W 013°10'4519.1
2017-Oct-16 03:07N 29°14' W 012°40'219.4
2017-Oct-16 03:00N 29°15' W 012°38'1019.7
2017-Oct-16 02:30N 29°23' W 012°32'5019.7
2017-Oct-15 23:59N 30°04' W 011°59'1219.2
2017-Oct-15 23:21N 30°14' W 011°51'718.8
2017-Oct-15 23:00N 30°19' W 011°46'1219.2
2017-Oct-15 22:23N 30°29' W 011°38'719.2
2017-Oct-15 22:00N 30°34' W 011°33'2019.4
2017-Oct-15 20:59N 30°51' W 011°19'17519.5
2017-Oct-15 12:00N 33°12' W 009°18'12819.1 260 / 161018.9 5.4 24.421.022.0
2017-Oct-15 05:16N 34°49' W 007°37'519.7
2017-Oct-15 05:00N 34°53' W 007°32'1019.6
2017-Oct-15 04:30N 34°60' W 007°24'1019.4
2017-Oct-15 04:00N 35°06' W 007°16'1019.7
2017-Oct-15 03:30N 35°14' W 007°07'1019.5
2017-Oct-15 03:00N 35°21' W 006°59'1019.6
2017-Oct-15 02:30N 35°28' W 006°51'1019.7
2017-Oct-15 02:00N 35°35' W 006°42'1019.5
2017-Oct-15 01:30N 35°42' W 006°34'2319.1
2017-Oct-15 00:19N 35°57' W 006°14'722.1
2017-Oct-15 00:00N 35°54' W 006°06'528.0 090 / 301021.3 2.2 20.518.9
2017-Oct-14 23:48N 35°58' W 006°02'719.4
2017-Oct-14 23:27N 35°58' W 005°53'1519.3
2017-Oct-14 22:41N 35°57' W 005°35'318.5
2017-Oct-14 22:30N 35°58' W 005°31'816.4
2017-Oct-14 22:00N 36°04' W 005°24'3 6.7
2017-Oct-14 21:30N 36°07' W 005°25'1 1.2
2017-Oct-14 21:00N 36°08' W 005°25'0 0.0
2017-Oct-14 20:30N 36°08' W 005°25'0 0.0
2017-Oct-14 19:58N 36°08' W 005°25'0 0.0
2017-Oct-14 19:30N 36°08' W 005°25'0 0.0
2017-Oct-14 18:58N 36°08' W 005°25'0 0.0
2017-Oct-14 18:27N 36°08' W 005°25'0 0.0
2017-Oct-14 17:49N 36°08' W 005°25'0 0.0
2017-Oct-14 17:30N 36°08' W 005°25'0 0.0
2017-Oct-14 16:54N 36°08' W 005°25'0 0.0
2017-Oct-14 16:30N 36°08' W 005°25'0 0.0
2017-Oct-14 16:00N 36°08' W 005°25'0 0.0
2017-Oct-14 15:27N 36°08' W 005°25'0 0.0
2017-Oct-14 15:00N 36°08' W 005°25'0 0.0
2017-Oct-14 14:27N 36°08' W 005°25'0 0.0
2017-Oct-14 14:00N 36°08' W 005°25'0 0.0
2017-Oct-14 13:30N 36°08' W 005°25'0 0.0
2017-Oct-14 13:00N 36°08' W 005°25'0 0.0
2017-Oct-14 12:30N 36°08' W 005°25'0 0.0
2017-Oct-14 12:00N 36°08' W 005°25'0 0.0
2017-Oct-14 11:31N 36°08' W 005°25'0 0.0
2017-Oct-14 11:01N 36°08' W 005°25'0 0.0
2017-Oct-14 10:30N 36°08' W 005°25'0 0.0
2017-Oct-14 10:00N 36°08' W 005°25'0 0.0
2017-Oct-14 09:30N 36°08' W 005°25'0 0.0
2017-Oct-14 09:00N 36°08' W 005°25'0 0.0
2017-Oct-14 08:27N 36°08' W 005°25'0 0.0
2017-Oct-14 08:00N 36°08' W 005°25'0 0.0
2017-Oct-14 07:30N 36°08' W 005°25'0 0.0
2017-Oct-14 07:01N 36°08' W 005°25'0 0.0
2017-Oct-14 06:30N 36°08' W 005°25'0 0.0
2017-Oct-14 06:00N 36°08' W 005°25'0 0.0
2017-Oct-14 05:24N 36°08' W 005°25'0 0.0
2017-Oct-14 04:54N 36°08' W 005°25'0 0.0
2017-Oct-14 04:30N 36°08' W 005°25'0 0.0
2017-Oct-14 04:00N 36°08' W 005°25'0 0.0
2017-Oct-14 03:30N 36°08' W 005°25'0 0.0
2017-Oct-14 02:57N 36°08' W 005°25'0 0.0
2017-Oct-14 02:30N 36°08' W 005°25'0 0.0
2017-Oct-14 02:00N 36°08' W 005°25'0 0.0
2017-Oct-14 01:30N 36°08' W 005°25'0 0.0
2017-Oct-14 01:00N 36°08' W 005°25'0 0.0
2017-Oct-14 00:30N 36°08' W 005°25'0 0.0
2017-Oct-14 00:00N 36°08' W 005°25'0 0.0
2017-Oct-13 23:24N 36°08' W 005°25'0 0.0
2017-Oct-13 23:00N 36°08' W 005°25'0 0.0
2017-Oct-13 22:30N 36°08' W 005°25'0 0.0
2017-Oct-13 22:00N 36°08' W 005°25'0 0.0
2017-Oct-13 21:27N 36°08' W 005°25'0 0.0
2017-Oct-13 21:00N 36°08' W 005°25'0 0.0
2017-Oct-13 20:30N 36°08' W 005°25'0 0.0
2017-Oct-13 20:00N 36°08' W 005°25'0 0.0
2017-Oct-13 19:30N 36°08' W 005°25'0 0.0
2017-Oct-13 19:00N 36°08' W 005°25'0 0.0
2017-Oct-13 18:27N 36°08' W 005°25'0 0.0
2017-Oct-13 13:06N 36°08' W 005°25'0 0.0
2017-Oct-13 13:00N 36°08' W 005°25'0 0.0
2017-Oct-13 12:30N 36°08' W 005°25'0 0.0
2017-Oct-13 11:54N 36°08' W 005°25'0 0.0
2017-Oct-13 11:30N 36°08' W 005°25'0 0.0
2017-Oct-13 10:57N 36°08' W 005°25'0 0.0
2017-Oct-13 10:06N 36°08' W 005°25'0 0.0
2017-Oct-13 10:00N 36°08' W 005°25'0 0.0
2017-Oct-13 09:30N 36°08' W 005°25'0 0.0
2017-Oct-13 07:54N 36°08' W 005°25'0 0.0
2017-Oct-13 07:30N 36°08' W 005°25'0 0.0
2017-Oct-13 07:00N 36°08' W 005°25'0 0.0
2017-Oct-13 06:30N 36°08' W 005°25'0 0.0
2017-Oct-13 06:00N 36°08' W 005°25'0 0.0
2017-Oct-13 05:30N 36°08' W 005°25'0 0.0
2017-Oct-13 05:00N 36°08' W 005°25'0 0.0
2017-Oct-13 04:30N 36°08' W 005°25'0 0.0
2017-Oct-13 04:00N 36°08' W 005°25'0 0.0
2017-Oct-13 03:30N 36°08' W 005°25'0 0.0
2017-Oct-13 03:00N 36°08' W 005°25'0 0.0
2017-Oct-13 02:30N 36°08' W 005°25'0 0.0
2017-Oct-13 02:00N 36°08' W 005°25'0 0.0
2017-Oct-13 01:30N 36°08' W 005°25'0 0.0
2017-Oct-13 01:00N 36°08' W 005°25'0 0.0
2017-Oct-13 00:30N 36°08' W 005°25'0 0.0
2017-Oct-13 00:00N 36°08' W 005°25'0 0.0
2017-Oct-12 23:30N 36°08' W 005°25'0 0.0
2017-Oct-12 23:00N 36°08' W 005°25'0 0.0
2017-Oct-12 22:30N 36°08' W 005°25'0 0.0
2017-Oct-12 22:00N 36°08' W 005°25'0 0.0
2017-Oct-12 21:30N 36°08' W 005°25'0 0.0
2017-Oct-12 21:00N 36°08' W 005°25'0 0.0
2017-Oct-12 20:30N 36°08' W 005°25'0 0.0
2017-Oct-12 20:00N 36°08' W 005°25'0 0.0
2017-Oct-12 19:30N 36°08' W 005°25'0 0.0
2017-Oct-12 19:00N 36°08' W 005°25'0 0.0
2017-Oct-12 18:30N 36°08' W 005°25'0 0.0
2017-Oct-12 18:00N 36°08' W 005°25'0 0.0
2017-Oct-12 17:30N 36°08' W 005°25'0 0.0
2017-Oct-12 17:00N 36°08' W 005°25'0 0.0
2017-Oct-12 16:30N 36°08' W 005°25'0 0.0
2017-Oct-12 16:00N 36°08' W 005°25'0 0.0
2017-Oct-12 15:30N 36°08' W 005°25'0 0.0
2017-Oct-12 15:00N 36°08' W 005°25'0 0.0
2017-Oct-12 14:27N 36°08' W 005°25'0 0.0
2017-Oct-12 14:00N 36°08' W 005°25'0 0.0
2017-Oct-12 13:30N 36°08' W 005°25'0 0.0
2017-Oct-12 13:00N 36°08' W 005°25'0 0.0
2017-Oct-12 12:30N 36°08' W 005°25'0 0.0
2017-Oct-12 11:54N 36°08' W 005°25'0 0.0
2017-Oct-12 11:30N 36°08' W 005°25'0 0.0
2017-Oct-12 11:00N 36°08' W 005°25'0 0.0
2017-Oct-12 10:30N 36°08' W 005°25'0 0.0
2017-Oct-12 10:00N 36°08' W 005°25'0 0.0
2017-Oct-12 09:30N 36°08' W 005°25'0 0.0
2017-Oct-12 09:00N 36°08' W 005°25'0 0.0
2017-Oct-12 08:30N 36°08' W 005°25'0 0.0
2017-Oct-12 08:00N 36°08' W 005°25'0 0.0
2017-Oct-12 07:30N 36°08' W 005°25'0 0.0
2017-Oct-12 06:54N 36°08' W 005°25'0 0.0
2017-Oct-12 06:30N 36°08' W 005°25'0 0.0
2017-Oct-12 06:00N 36°08' W 005°25'0 0.0
2017-Oct-12 05:30N 36°08' W 005°25'0 0.0
2017-Oct-12 05:00N 36°08' W 005°25'0 0.0
2017-Oct-12 04:30N 36°08' W 005°25'0 0.0
2017-Oct-12 04:00N 36°08' W 005°25'0 0.0
2017-Oct-12 03:30N 36°08' W 005°25'0 0.0
2017-Oct-12 03:00N 36°08' W 005°25'0 0.0
2017-Oct-12 02:30N 36°08' W 005°25'0 0.0
2017-Oct-12 02:00N 36°08' W 005°25'0 0.0
2017-Oct-12 01:30N 36°08' W 005°25'0 0.0
2017-Oct-12 01:00N 36°08' W 005°25'0 0.0
2017-Oct-12 00:24N 36°08' W 005°25'0 0.0
2017-Oct-12 00:00N 36°08' W 005°25'0 0.0
2017-Oct-11 23:30N 36°08' W 005°25'0 0.0
2017-Oct-11 23:00N 36°08' W 005°25'0 0.0
2017-Oct-11 22:30N 36°08' W 005°25'0 0.0
2017-Oct-11 22:00N 36°08' W 005°25'0 0.0
2017-Oct-11 21:30N 36°08' W 005°25'0 0.0
2017-Oct-11 21:00N 36°08' W 005°25'0 0.0
2017-Oct-11 20:30N 36°08' W 005°25'0 0.0
2017-Oct-11 20:00N 36°08' W 005°25'0 0.0
2017-Oct-11 19:27N 36°08' W 005°25'0 0.0
2017-Oct-11 18:57N 36°08' W 005°25'0 0.0
2017-Oct-11 18:30N 36°08' W 005°25'0 0.0
2017-Oct-11 18:00N 36°08' W 005°25'0 0.0
2017-Oct-11 17:30N 36°08' W 005°25'0 0.0
2017-Oct-11 17:00N 36°08' W 005°25'1 0.1
2017-Oct-11 00:00N 36°09' W 005°26'0 0.0
2017-Oct-10 21:48N 36°09' W 005°26'0 0.0
2017-Oct-10 21:18N 36°09' W 005°26'0 0.0
2017-Oct-10 21:00N 36°09' W 005°26'0 0.0
2017-Oct-10 19:51N 36°09' W 005°26'0 0.0
2017-Oct-10 19:30N 36°09' W 005°26'0 0.0
2017-Oct-10 19:00N 36°09' W 005°26'0 0.0
2017-Oct-10 18:30N 36°09' W 005°26'0 0.0
2017-Oct-10 15:30N 36°09' W 005°26'0 0.0
2017-Oct-10 15:00N 36°09' W 005°26'0 0.0
2017-Oct-10 13:54N 36°09' W 005°26'0 0.0
2017-Oct-10 13:18N 36°09' W 005°26'0 0.0
2017-Oct-10 12:56N 36°09' W 005°26'0 0.8
2017-Oct-10 12:30N 36°09' W 005°26'2 4.4
2017-Oct-10 12:00N 36°08' W 005°24'5 9.2
2017-Oct-10 11:30N 36°03' W 005°23'510.5
2017-Oct-10 11:00N 35°58' W 005°26'814.6
2017-Oct-10 10:26N 35°56' W 005°36'1513.7
2017-Oct-10 09:21N 35°55' W 005°54'2013.8
2017-Oct-10 07:54N 35°54' W 006°19'513.3
2017-Oct-10 07:30N 35°56' W 006°25'7 6.7
2017-Oct-10 06:24N 35°58' W 006°34'2011.8
2017-Oct-10 04:41N 36°03' W 006°58'211.4
2017-Oct-10 04:30N 36°04' W 007°00'612.0
2017-Oct-10 04:00N 36°05' W 007°08'612.6
2017-Oct-10 03:30N 36°07' W 007°15'612.2
2017-Oct-10 03:00N 36°08' W 007°22'613.0
2017-Oct-10 02:30N 36°10' W 007°30'713.2
2017-Oct-10 02:00N 36°12' W 007°38'712.8
2017-Oct-10 01:25N 36°14' W 007°47'713.4
2017-Oct-10 00:53N 36°15' W 007°56'613.1
2017-Oct-10 00:27N 36°17' W 008°02'612.9
2017-Oct-10 00:00N 36°18' W 008°09'613.0
2017-Oct-09 23:30N 36°20' W 008°17'713.2
2017-Oct-09 23:00N 36°22' W 008°25'713.3
2017-Oct-09 22:29N 36°24' W 008°33'613.2
2017-Oct-09 22:00N 36°26' W 008°41'713.4
2017-Oct-09 21:30N 36°27' W 008°49'713.3
2017-Oct-09 21:00N 36°29' W 008°57'713.3
2017-Oct-09 20:30N 36°31' W 009°05'713.2
2017-Oct-09 20:00N 36°33' W 009°13'713.3
2017-Oct-09 19:30N 36°37' W 009°20'713.8
2017-Oct-09 19:00N 36°41' W 009°26'713.3
2017-Oct-09 18:30N 36°46' W 009°31'713.4
2017-Oct-09 18:00N 36°53' W 009°34'713.1
2017-Oct-09 17:30N 36°59' W 009°36'713.2
2017-Oct-09 17:00N 37°06' W 009°38'713.1
2017-Oct-09 16:30N 37°12' W 009°40'713.3
2017-Oct-09 16:00N 37°18' W 009°42'713.3
2017-Oct-09 15:30N 37°25' W 009°44'612.8
2017-Oct-09 15:00N 37°31' W 009°46'612.9
2017-Oct-09 14:30N 37°37' W 009°48'713.2
2017-Oct-09 14:00N 37°44' W 009°50'713.3
2017-Oct-09 13:30N 37°50' W 009°52'713.4
2017-Oct-09 13:00N 37°57' W 009°54'713.3
2017-Oct-09 12:30N 38°03' W 009°56'713.5
2017-Oct-09 12:00N 38°10' W 009°57'713.6
2017-Oct-09 11:30N 38°17' W 009°59'713.7
2017-Oct-09 11:00N 38°23' W 010°00'713.5
2017-Oct-09 10:30N 38°30' W 010°03'713.2
2017-Oct-09 10:00N 38°36' W 010°05'612.7
2017-Oct-09 09:30N 38°42' W 010°07'713.5
2017-Oct-09 09:00N 38°49' W 010°07'713.9
2017-Oct-09 08:30N 38°56' W 010°07'714.3
2017-Oct-09 08:01N 39°03' W 010°07'714.3
2017-Oct-09 07:31N 39°10' W 010°07'713.9
2017-Oct-09 07:00N 39°17' W 010°07'713.1
2017-Oct-09 06:30N 39°24' W 010°08'613.0
2017-Oct-09 06:00N 39°30' W 010°09'612.8
2017-Oct-09 05:30N 39°36' W 010°09'713.1
2017-Oct-09 05:00N 39°43' W 010°10'713.0
2017-Oct-09 04:30N 39°50' W 010°10'713.2
2017-Oct-09 04:00N 39°56' W 010°11'713.1
2017-Oct-09 03:30N 40°03' W 010°11'713.2
2017-Oct-09 03:00N 40°09' W 010°12'713.1
2017-Oct-09 02:30N 40°16' W 010°13'613.0
2017-Oct-09 02:00N 40°22' W 010°13'713.1
2017-Oct-09 01:30N 40°29' W 010°14'713.3
2017-Oct-09 01:00N 40°35' W 010°14'713.4
2017-Oct-09 00:30N 40°42' W 010°15'713.1
2017-Oct-09 00:00N 40°49' W 010°15'713.2
2017-Oct-08 23:30N 40°55' W 010°16'713.4
2017-Oct-08 23:00N 41°02' W 010°16'713.5
2017-Oct-08 22:30N 41°09' W 010°17'713.3
2017-Oct-08 22:00N 41°15' W 010°17'713.3
2017-Oct-08 21:30N 41°22' W 010°17'713.8
2017-Oct-08 21:00N 41°29' W 010°17'713.8
2017-Oct-08 20:30N 41°36' W 010°18'713.7
2017-Oct-08 20:00N 41°43' W 010°18'713.4
2017-Oct-08 19:30N 41°49' W 010°18'612.9
2017-Oct-08 19:00N 41°56' W 010°18'713.3
2017-Oct-08 18:29N 42°03' W 010°18'713.0
2017-Oct-08 17:59N 42°09' W 010°18'5 4.6
2017-Oct-08 16:48N 42°14' W 010°20'2 6.4
2017-Oct-08 16:29N 42°16' W 010°20'  
Track history (hours):
 
Tides and Currents Weather Stations Pressure Air Temp Water Temp Dewpoint Dewpoint Depression Visibility Wind Speed Wind Dir Waves Ship Positions

Cap San Lorenzo

Last reported at 2017-Oct-18 12:00 UTC. Time now 2017-Oct-18 22:39 UTC.
Position N 13°36' W 022°36'.

Length 333 m; draft 13.5 m.

Type: Ship (hazmat cat A). MMSI: 255805699.

Wind from 030 at 14 knots

Barometer 1016.9 mb
Air temperature 31.3 ° C
Visibility: greater than 5.4 NM
Dewpoint 21.8 ° C
Water temperature 29.0 ° C

Date/timePositionNaut miles runAvg speedWind from/ knotsBaromVisibWave heightAir tempDewpointWater temp
2017-Oct-18 12:00N 13°36' W 022°36'23219.3 030 / 141016.9 5.4 31.321.829.0
2017-Oct-18 00:00N 17°06' W 020°54'22819.0 010 / 111018.510.8 24.021.826.0
2017-Oct-17 12:00N 20°30' W 019°06'24020.0 050 / 141019.0 5.4 30.317.424.0
2017-Oct-17 00:00N 24°06' W 017°12'19118.8 360 / 171020.410.8 21.716.621.0
2017-Oct-16 13:50N 26°34' W 014°58'2018.6
2017-Oct-16 12:46N 26°49' W 014°43'518.9
2017-Oct-16 12:30N 26°53' W 014°40'918.9
2017-Oct-16 12:00N 27°00' W 014°33'3186.9
2017-Oct-16 12:00N 27°00' W 014°30'817.1 1022.5 5.4 28.015.122.0
2017-Oct-16 11:30N 27°08' W 014°26'918.7
2017-Oct-16 11:00N 27°15' W 014°20'918.5
2017-Oct-16 10:30N 27°22' W 014°13'918.4
2017-Oct-16 10:00N 27°29' W 014°07'918.2
2017-Oct-16 09:30N 27°36' W 014°00'918.4
2017-Oct-16 09:00N 27°44' W 013°54'918.5
2017-Oct-16 08:30N 27°51' W 013°48'918.6
2017-Oct-16 08:00N 27°59' W 013°42'1018.8
2017-Oct-16 07:28N 28°07' W 013°35'918.8
2017-Oct-16 07:00N 28°14' W 013°29'1518.8
2017-Oct-16 06:11N 28°26' W 013°19'718.5
2017-Oct-16 05:46N 28°33' W 013°14'618.7
2017-Oct-16 05:28N 28°37' W 013°10'4519.1
2017-Oct-16 03:07N 29°14' W 012°40'219.4
2017-Oct-16 03:00N 29°15' W 012°38'1019.7
2017-Oct-16 02:30N 29°23' W 012°32'5019.7
2017-Oct-15 23:59N 30°04' W 011°59'1219.2
2017-Oct-15 23:21N 30°14' W 011°51'718.8
2017-Oct-15 23:00N 30°19' W 011°46'1219.2
2017-Oct-15 22:23N 30°29' W 011°38'719.2
2017-Oct-15 22:00N 30°34' W 011°33'2019.4
2017-Oct-15 20:59N 30°51' W 011°19'17519.5
2017-Oct-15 12:00N 33°12' W 009°18'12819.1 260 / 161018.9 5.4 24.421.022.0
2017-Oct-15 05:16N 34°49' W 007°37'519.7
2017-Oct-15 05:00N 34°53' W 007°32'1019.6
2017-Oct-15 04:30N 34°60' W 007°24'1019.4
2017-Oct-15 04:00N 35°06' W 007°16'1019.7
2017-Oct-15 03:30N 35°14' W 007°07'1019.5
2017-Oct-15 03:00N 35°21' W 006°59'1019.6
2017-Oct-15 02:30N 35°28' W 006°51'1019.7
2017-Oct-15 02:00N 35°35' W 006°42'1019.5
2017-Oct-15 01:30N 35°42' W 006°34'2319.1
2017-Oct-15 00:19N 35°57' W 006°14'722.1
2017-Oct-15 00:00N 35°54' W 006°06'528.0 090 / 301021.3 2.2 20.518.9
2017-Oct-14 23:48N 35°58' W 006°02'719.4
2017-Oct-14 23:27N 35°58' W 005°53'1519.3
2017-Oct-14 22:41N 35°57' W 005°35'318.5
2017-Oct-14 22:30N 35°58' W 005°31'816.4
2017-Oct-14 22:00N 36°04' W 005°24'3 6.7
2017-Oct-14 21:30N 36°07' W 005°25'1 1.2
2017-Oct-14 21:00N 36°08' W 005°25'0 0.0
2017-Oct-14 20:30N 36°08' W 005°25'0 0.0
2017-Oct-14 19:58N 36°08' W 005°25'0 0.0
2017-Oct-14 19:30N 36°08' W 005°25'0 0.0
2017-Oct-14 18:58N 36°08' W 005°25'0 0.0
2017-Oct-14 18:27N 36°08' W 005°25'0 0.0
2017-Oct-14 17:49N 36°08' W 005°25'0 0.0
2017-Oct-14 17:30N 36°08' W 005°25'0 0.0
2017-Oct-14 16:54N 36°08' W 005°25'0 0.0
2017-Oct-14 16:30N 36°08' W 005°25'0 0.0
2017-Oct-14 16:00N 36°08' W 005°25'0 0.0
2017-Oct-14 15:27N 36°08' W 005°25'0 0.0
2017-Oct-14 15:00N 36°08' W 005°25'0 0.0
2017-Oct-14 14:27N 36°08' W 005°25'0 0.0
2017-Oct-14 14:00N 36°08' W 005°25'0 0.0
2017-Oct-14 13:30N 36°08' W 005°25'0 0.0
2017-Oct-14 13:00N 36°08' W 005°25'0 0.0
2017-Oct-14 12:30N 36°08' W 005°25'0 0.0
2017-Oct-14 12:00N 36°08' W 005°25'0 0.0
2017-Oct-14 11:31N 36°08' W 005°25'0 0.0
2017-Oct-14 11:01N 36°08' W 005°25'0 0.0
2017-Oct-14 10:30N 36°08' W 005°25'0 0.0
2017-Oct-14 10:00N 36°08' W 005°25'0 0.0
2017-Oct-14 09:30N 36°08' W 005°25'0 0.0
2017-Oct-14 09:00N 36°08' W 005°25'0 0.0
2017-Oct-14 08:27N 36°08' W 005°25'0 0.0
2017-Oct-14 08:00N 36°08' W 005°25'0 0.0
2017-Oct-14 07:30N 36°08' W 005°25'0 0.0
2017-Oct-14 07:01N 36°08' W 005°25'0 0.0
2017-Oct-14 06:30N 36°08' W 005°25'0 0.0
2017-Oct-14 06:00N 36°08' W 005°25'0 0.0
2017-Oct-14 05:24N 36°08' W 005°25'0 0.0
2017-Oct-14 04:54N 36°08' W 005°25'0 0.0
2017-Oct-14 04:30N 36°08' W 005°25'0 0.0
2017-Oct-14 04:00N 36°08' W 005°25'0 0.0
2017-Oct-14 03:30N 36°08' W 005°25'0 0.0
2017-Oct-14 02:57N 36°08' W 005°25'0 0.0
2017-Oct-14 02:30N 36°08' W 005°25'0 0.0
2017-Oct-14 02:00N 36°08' W 005°25'0 0.0
2017-Oct-14 01:30N 36°08' W 005°25'0 0.0
2017-Oct-14 01:00N 36°08' W 005°25'0 0.0
2017-Oct-14 00:30N 36°08' W 005°25'0 0.0
2017-Oct-14 00:00N 36°08' W 005°25'0 0.0
2017-Oct-13 23:24N 36°08' W 005°25'0 0.0
2017-Oct-13 23:00N 36°08' W 005°25'0 0.0
2017-Oct-13 22:30N 36°08' W 005°25'0 0.0
2017-Oct-13 22:00N 36°08' W 005°25'0 0.0
2017-Oct-13 21:27N 36°08' W 005°25'0 0.0
2017-Oct-13 21:00N 36°08' W 005°25'0 0.0
2017-Oct-13 20:30N 36°08' W 005°25'0 0.0
2017-Oct-13 20:00N 36°08' W 005°25'0 0.0
2017-Oct-13 19:30N 36°08' W 005°25'0 0.0
2017-Oct-13 19:00N 36°08' W 005°25'0 0.0
2017-Oct-13 18:27N 36°08' W 005°25'0 0.0
2017-Oct-13 13:06N 36°08' W 005°25'0 0.0
2017-Oct-13 13:00N 36°08' W 005°25'0 0.0
2017-Oct-13 12:30N 36°08' W 005°25'0 0.0
2017-Oct-13 11:54N 36°08' W 005°25'0 0.0
2017-Oct-13 11:30N 36°08' W 005°25'0 0.0
2017-Oct-13 10:57N 36°08' W 005°25'0 0.0
2017-Oct-13 10:06N 36°08' W 005°25'0 0.0
2017-Oct-13 10:00N 36°08' W 005°25'0 0.0
2017-Oct-13 09:30N 36°08' W 005°25'0 0.0
2017-Oct-13 07:54N 36°08' W 005°25'0 0.0
2017-Oct-13 07:30N 36°08' W 005°25'0 0.0
2017-Oct-13 07:00N 36°08' W 005°25'0 0.0
2017-Oct-13 06:30N 36°08' W 005°25'0 0.0
2017-Oct-13 06:00N 36°08' W 005°25'0 0.0
2017-Oct-13 05:30N 36°08' W 005°25'0 0.0
2017-Oct-13 05:00N 36°08' W 005°25'0 0.0
2017-Oct-13 04:30N 36°08' W 005°25'0 0.0
2017-Oct-13 04:00N 36°08' W 005°25'0 0.0
2017-Oct-13 03:30N 36°08' W 005°25'0 0.0
2017-Oct-13 03:00N 36°08' W 005°25'0 0.0
2017-Oct-13 02:30N 36°08' W 005°25'0 0.0
2017-Oct-13 02:00N 36°08' W 005°25'0 0.0
2017-Oct-13 01:30N 36°08' W 005°25'0 0.0
2017-Oct-13 01:00N 36°08' W 005°25'0 0.0
2017-Oct-13 00:30N 36°08' W 005°25'0 0.0
2017-Oct-13 00:00N 36°08' W 005°25'0 0.0
2017-Oct-12 23:30N 36°08' W 005°25'0 0.0
2017-Oct-12 23:00N 36°08' W 005°25'0 0.0
2017-Oct-12 22:30N 36°08' W 005°25'0 0.0
2017-Oct-12 22:00N 36°08' W 005°25'0 0.0
2017-Oct-12 21:30N 36°08' W 005°25'0 0.0
2017-Oct-12 21:00N 36°08' W 005°25'0 0.0
2017-Oct-12 20:30N 36°08' W 005°25'0 0.0
2017-Oct-12 20:00N 36°08' W 005°25'0 0.0
2017-Oct-12 19:30N 36°08' W 005°25'0 0.0
2017-Oct-12 19:00N 36°08' W 005°25'0 0.0
2017-Oct-12 18:30N 36°08' W 005°25'0 0.0
2017-Oct-12 18:00N 36°08' W 005°25'0 0.0
2017-Oct-12 17:30N 36°08' W 005°25'0 0.0
2017-Oct-12 17:00N 36°08' W 005°25'0 0.0
2017-Oct-12 16:30N 36°08' W 005°25'0 0.0
2017-Oct-12 16:00N 36°08' W 005°25'0 0.0
2017-Oct-12 15:30N 36°08' W 005°25'0 0.0
2017-Oct-12 15:00N 36°08' W 005°25'0 0.0
2017-Oct-12 14:27N 36°08' W 005°25'0 0.0
2017-Oct-12 14:00N 36°08' W 005°25'0 0.0
2017-Oct-12 13:30N 36°08' W 005°25'0 0.0
2017-Oct-12 13:00N 36°08' W 005°25'0 0.0
2017-Oct-12 12:30N 36°08' W 005°25'0 0.0
2017-Oct-12 11:54N 36°08' W 005°25'0 0.0
2017-Oct-12 11:30N 36°08' W 005°25'0 0.0
2017-Oct-12 11:00N 36°08' W 005°25'0 0.0
2017-Oct-12 10:30N 36°08' W 005°25'0 0.0
2017-Oct-12 10:00N 36°08' W 005°25'0 0.0
2017-Oct-12 09:30N 36°08' W 005°25'0 0.0
2017-Oct-12 09:00N 36°08' W 005°25'0 0.0
2017-Oct-12 08:30N 36°08' W 005°25'0 0.0
2017-Oct-12 08:00N 36°08' W 005°25'0 0.0
2017-Oct-12 07:30N 36°08' W 005°25'0 0.0
2017-Oct-12 06:54N 36°08' W 005°25'0 0.0
2017-Oct-12 06:30N 36°08' W 005°25'0 0.0
2017-Oct-12 06:00N 36°08' W 005°25'0 0.0
2017-Oct-12 05:30N 36°08' W 005°25'0 0.0
2017-Oct-12 05:00N 36°08' W 005°25'0 0.0
2017-Oct-12 04:30N 36°08' W 005°25'0 0.0
2017-Oct-12 04:00N 36°08' W 005°25'0 0.0
2017-Oct-12 03:30N 36°08' W 005°25'0 0.0
2017-Oct-12 03:00N 36°08' W 005°25'0 0.0
2017-Oct-12 02:30N 36°08' W 005°25'0 0.0
2017-Oct-12 02:00N 36°08' W 005°25'0 0.0
2017-Oct-12 01:30N 36°08' W 005°25'0 0.0
2017-Oct-12 01:00N 36°08' W 005°25'0 0.0
2017-Oct-12 00:24N 36°08' W 005°25'0 0.0
2017-Oct-12 00:00N 36°08' W 005°25'0 0.0
2017-Oct-11 23:30N 36°08' W 005°25'0 0.0
2017-Oct-11 23:00N 36°08' W 005°25'0 0.0
2017-Oct-11 22:30N 36°08' W 005°25'0 0.0
2017-Oct-11 22:00N 36°08' W 005°25'0 0.0
2017-Oct-11 21:30N 36°08' W 005°25'0 0.0
2017-Oct-11 21:00N 36°08' W 005°25'0 0.0
2017-Oct-11 20:30N 36°08' W 005°25'0 0.0
2017-Oct-11 20:00N 36°08' W 005°25'0 0.0
2017-Oct-11 19:27N 36°08' W 005°25'0 0.0
2017-Oct-11 18:57N 36°08' W 005°25'0 0.0
2017-Oct-11 18:30N 36°08' W 005°25'0 0.0
2017-Oct-11 18:00N 36°08' W 005°25'0 0.0
2017-Oct-11 17:30N 36°08' W 005°25'0 0.0
2017-Oct-11 17:00N 36°08' W 005°25'1 0.1
2017-Oct-11 00:00N 36°09' W 005°26'0 0.0
2017-Oct-10 21:48N 36°09' W 005°26'0 0.0
2017-Oct-10 21:18N 36°09' W 005°26'0 0.0
2017-Oct-10 21:00N 36°09' W 005°26'0 0.0
2017-Oct-10 19:51N 36°09' W 005°26'0 0.0
2017-Oct-10 19:30N 36°09' W 005°26'0 0.0
2017-Oct-10 19:00N 36°09' W 005°26'0 0.0
2017-Oct-10 18:30N 36°09' W 005°26'0 0.0
2017-Oct-10 15:30N 36°09' W 005°26'0 0.0
2017-Oct-10 15:00N 36°09' W 005°26'0 0.0
2017-Oct-10 13:54N 36°09' W 005°26'0 0.0
2017-Oct-10 13:18N 36°09' W 005°26'0 0.0
2017-Oct-10 12:56N 36°09' W 005°26'0 0.8
2017-Oct-10 12:30N 36°09' W 005°26'2 4.4
2017-Oct-10 12:00N 36°08' W 005°24'5 9.2
2017-Oct-10 11:30N 36°03' W 005°23'510.5
2017-Oct-10 11:00N 35°58' W 005°26'814.6
2017-Oct-10 10:26N 35°56' W 005°36'1513.7
2017-Oct-10 09:21N 35°55' W 005°54'2013.8
2017-Oct-10 07:54N 35°54' W 006°19'513.3
2017-Oct-10 07:30N 35°56' W 006°25'7 6.7
2017-Oct-10 06:24N 35°58' W 006°34'2011.8
2017-Oct-10 04:41N 36°03' W 006°58'211.4
2017-Oct-10 04:30N 36°04' W 007°00'612.0
2017-Oct-10 04:00N 36°05' W 007°08'612.6
2017-Oct-10 03:30N 36°07' W 007°15'612.2
2017-Oct-10 03:00N 36°08' W 007°22'613.0
2017-Oct-10 02:30N 36°10' W 007°30'713.2
2017-Oct-10 02:00N 36°12' W 007°38'712.8
2017-Oct-10 01:25N 36°14' W 007°47'713.4
2017-Oct-10 00:53N 36°15' W 007°56'613.1
2017-Oct-10 00:27N 36°17' W 008°02'612.9
2017-Oct-10 00:00N 36°18' W 008°09'613.0
2017-Oct-09 23:30N 36°20' W 008°17'713.2
2017-Oct-09 23:00N 36°22' W 008°25'713.3
2017-Oct-09 22:29N 36°24' W 008°33'613.2
2017-Oct-09 22:00N 36°26' W 008°41'713.4
2017-Oct-09 21:30N 36°27' W 008°49'713.3
2017-Oct-09 21:00N 36°29' W 008°57'713.3
2017-Oct-09 20:30N 36°31' W 009°05'713.2
2017-Oct-09 20:00N 36°33' W 009°13'713.3
2017-Oct-09 19:30N 36°37' W 009°20'713.8
2017-Oct-09 19:00N 36°41' W 009°26'713.3
2017-Oct-09 18:30N 36°46' W 009°31'713.4
2017-Oct-09 18:00N 36°53' W 009°34'713.1
2017-Oct-09 17:30N 36°59' W 009°36'713.2
2017-Oct-09 17:00N 37°06' W 009°38'713.1
2017-Oct-09 16:30N 37°12' W 009°40'713.3
2017-Oct-09 16:00N 37°18' W 009°42'713.3
2017-Oct-09 15:30N 37°25' W 009°44'612.8
2017-Oct-09 15:00N 37°31' W 009°46'612.9
2017-Oct-09 14:30N 37°37' W 009°48'713.2
2017-Oct-09 14:00N 37°44' W 009°50'713.3
2017-Oct-09 13:30N 37°50' W 009°52'713.4
2017-Oct-09 13:00N 37°57' W 009°54'713.3
2017-Oct-09 12:30N 38°03' W 009°56'713.5
2017-Oct-09 12:00N 38°10' W 009°57'713.6
2017-Oct-09 11:30N 38°17' W 009°59'713.7
2017-Oct-09 11:00N 38°23' W 010°00'713.5
2017-Oct-09 10:30N 38°30' W 010°03'713.2
2017-Oct-09 10:00N 38°36' W 010°05'612.7
2017-Oct-09 09:30N 38°42' W 010°07'713.5
2017-Oct-09 09:00N 38°49' W 010°07'713.9
2017-Oct-09 08:30N 38°56' W 010°07'714.3
2017-Oct-09 08:01N 39°03' W 010°07'714.3
2017-Oct-09 07:31N 39°10' W 010°07'713.9
2017-Oct-09 07:00N 39°17' W 010°07'713.1
2017-Oct-09 06:30N 39°24' W 010°08'613.0
2017-Oct-09 06:00N 39°30' W 010°09'612.8
2017-Oct-09 05:30N 39°36' W 010°09'713.1
2017-Oct-09 05:00N 39°43' W 010°10'713.0
2017-Oct-09 04:30N 39°50' W 010°10'713.2
2017-Oct-09 04:00N 39°56' W 010°11'713.1
2017-Oct-09 03:30N 40°03' W 010°11'713.2
2017-Oct-09 03:00N 40°09' W 010°12'713.1
2017-Oct-09 02:30N 40°16' W 010°13'613.0
2017-Oct-09 02:00N 40°22' W 010°13'713.1
2017-Oct-09 01:30N 40°29' W 010°14'713.3
2017-Oct-09 01:00N 40°35' W 010°14'713.4
2017-Oct-09 00:30N 40°42' W 010°15'713.1
2017-Oct-09 00:00N 40°49' W 010°15'713.2
2017-Oct-08 23:30N 40°55' W 010°16'713.4
2017-Oct-08 23:00N 41°02' W 010°16'713.5
2017-Oct-08 22:30N 41°09' W 010°17'713.3
2017-Oct-08 22:00N 41°15' W 010°17'713.3
2017-Oct-08 21:30N 41°22' W 010°17'713.8
2017-Oct-08 21:00N 41°29' W 010°17'713.8
2017-Oct-08 20:30N 41°36' W 010°18'713.7
2017-Oct-08 20:00N 41°43' W 010°18'713.4
2017-Oct-08 19:30N 41°49' W 010°18'612.9
2017-Oct-08 19:00N 41°56' W 010°18'713.3
2017-Oct-08 18:29N 42°03' W 010°18'713.0
2017-Oct-08 17:59N 42°09' W 010°18'5 4.6
2017-Oct-08 16:48N 42°14' W 010°20'2 6.4
2017-Oct-08 16:29N 42°16' W 010°20'  

Dump ship's entire track history